Time;durP1;ratioP1;P1;durP2;ratioP2;P2;SDS_P1;SDS_P2;PMS_P1;PMS_P2;Temp;Humidity;BMP_temperature;BMP_pressure;BME280_temperature;BME280_humidity;BME280_pressure;Samples;Min_cycle;Max_cycle;Signal;HPM_P1;HPM_P2
2022/03/26 00:00:07;;;;;;;45.80;29.15;;;7.50;91.60;;;;;;5087514;28;20402;-81
2022/03/26 00:02:33;;;;;;;39.10;27.80;;;7.40;91.80;;;;;;5087909;28;20036;-80
2022/03/26 00:04:58;;;;;;;40.28;27.60;;;7.50;92.30;;;;;;5088687;28;20166;-80
2022/03/26 00:07:24;;;;;;;42.60;28.08;;;7.50;92.50;;;;;;5068946;28;20048;-80
2022/03/26 00:09:49;;;;;;;40.00;27.45;;;7.40;93.40;;;;;;5085814;28;20047;-80
2022/03/26 00:12:15;;;;;;;42.42;27.95;;;7.40;94.20;;;;;;5071877;28;20064;-80
2022/03/26 00:14:40;;;;;;;39.20;25.08;;;7.30;94.50;;;;;;5089620;28;20040;-80
2022/03/26 00:17:09;;;;;;;45.00;28.60;;;7.20;94.90;;;;;;5069815;28;20566;-81
2022/03/26 00:19:35;;;;;;;44.00;28.27;;;7.20;95.90;;;;;;5089244;28;20048;-80
2022/03/26 00:22:00;;;;;;;44.05;29.35;;;7.10;96.30;;;;;;5085952;28;20044;-80
2022/03/26 00:24:26;;;;;;;43.20;30.65;;;7.10;96.90;;;;;;5089054;28;20414;-80
2022/03/26 00:26:52;;;;;;;42.38;29.27;;;7.00;97.60;;;;;;5069710;28;20717;-80
2022/03/26 00:29:18;;;;;;;45.63;29.38;;;7.00;98.00;;;;;;5090023;28;20105;-80
2022/03/26 00:31:44;;;;;;;48.45;31.13;;;7.10;97.20;;;;;;5070976;28;20044;-81
2022/03/26 00:34:09;;;;;;;47.30;30.35;;;7.10;96.40;;;;;;5087594;28;20051;-79
2022/03/26 00:36:35;;;;;;;45.50;30.33;;;7.20;95.70;;;;;;5068945;28;20047;-80
2022/03/26 00:39:02;;;;;;;48.30;31.08;;;7.20;94.80;;;;;;5089258;28;20054;-80
2022/03/26 00:41:31;;;;;;;47.03;32.40;;;7.30;94.20;;;;;;5088909;28;20070;-80
2022/03/26 00:43:57;;;;;;;46.05;32.08;;;7.30;93.60;;;;;;5087869;28;20656;-80
2022/03/26 00:46:25;;;;;;;48.08;31.73;;;7.30;93.40;;;;;;5087340;28;20119;-80
2022/03/26 00:48:51;;;;;;;51.22;32.40;;;7.40;93.40;;;;;;5087092;28;20477;-80
2022/03/26 00:51:17;;;;;;;48.00;31.60;;;7.40;93.20;;;;;;5088380;28;20044;-80
2022/03/26 00:53:46;;;;;;;47.83;31.80;;;7.40;93.80;;;;;;5068892;28;20047;-80
2022/03/26 00:56:12;;;;;;;44.78;31.58;;;7.30;94.50;;;;;;5088258;28;20575;-80
2022/03/26 00:58:39;;;;;;;45.45;30.90;;;7.20;95.50;;;;;;5087185;28;20043;-81
2022/03/26 01:01:04;;;;;;;50.57;30.97;;;7.10;96.60;;;;;;5070040;28;20429;-80
2022/03/26 01:03:30;;;;;;;43.40;30.20;;;7.00;97.70;;;;;;5085046;28;20301;-80
2022/03/26 01:05:56;;;;;;;48.70;31.65;;;6.90;98.50;;;;;;5086166;28;20372;-80
2022/03/26 01:08:22;;;;;;;49.03;32.65;;;6.80;99.20;;;;;;5066763;28;20075;-80
2022/03/26 01:10:47;;;;;;;45.03;32.08;;;6.70;99.90;;;;;;5068998;28;20127;-80
2022/03/26 01:13:13;;;;;;;50.13;32.78;;;6.70;99.90;;;;;;5071017;28;20387;-80
2022/03/26 01:15:39;;;;;;;50.65;33.53;;;6.70;99.90;;;;;;5070811;28;20048;-80
2022/03/26 01:18:06;;;;;;;50.58;33.13;;;6.70;99.90;;;;;;5087985;28;20052;-80
2022/03/26 01:20:32;;;;;;;47.87;31.73;;;6.60;99.90;;;;;;5086017;28;20051;-79
2022/03/26 01:22:58;;;;;;;47.53;33.08;;;6.60;99.90;;;;;;5086509;28;20302;-80
2022/03/26 01:25:24;;;;;;;49.08;33.97;;;6.60;99.90;;;;;;5087612;28;20044;-80
2022/03/26 01:27:50;;;;;;;46.90;32.30;;;6.60;99.90;;;;;;5066002;28;20043;-80
2022/03/26 01:30:16;;;;;;;45.42;30.80;;;6.60;99.90;;;;;;5088012;28;20060;-80
2022/03/26 01:32:43;;;;;;;46.78;31.48;;;6.50;99.90;;;;;;5087089;28;20115;-80
2022/03/26 01:35:09;;;;;;;51.28;34.28;;;6.50;99.90;;;;;;5087570;28;20056;-79
2022/03/26 01:37:35;;;;;;;47.90;31.98;;;6.40;99.90;;;;;;5067667;28;20040;-80
2022/03/26 01:40:01;;;;;;;45.25;31.80;;;6.40;99.90;;;;;;5071357;28;20482;-80
2022/03/26 01:42:27;;;;;;;49.53;32.60;;;6.30;99.90;;;;;;5078271;28;20802;-80
2022/03/26 01:44:52;;;;;;;51.75;33.20;;;6.30;99.90;;;;;;5105079;28;20048;-80
2022/03/26 01:47:27;;;;;;;48.17;32.72;;;6.30;99.90;;;;;;5082786;28;20044;-81
2022/03/26 01:49:53;;;;;;;49.22;33.08;;;6.30;99.90;;;;;;5095038;28;20043;-79
2022/03/26 01:52:18;;;;;;;48.17;33.55;;;6.30;99.90;;;;;;5089380;28;20424;-80
2022/03/26 01:54:44;;;;;;;48.67;33.20;;;6.20;99.90;;;;;;5065463;28;20040;-80
2022/03/26 01:57:13;;;;;;;50.88;32.50;;;6.20;99.90;;;;;;5088640;28;20047;-80
2022/03/26 01:59:41;;;;;;;44.33;32.17;;;6.20;99.90;;;;;;5069272;28;20051;-80
2022/03/26 02:02:07;;;;;;;45.78;31.85;;;6.20;99.90;;;;;;5066888;28;20495;-80
2022/03/26 02:04:34;;;;;;;49.67;34.47;;;6.20;99.90;;;;;;5069031;28;20078;-80
2022/03/26 02:07:04;;;;;;;;;;;6.20;99.90;;;;;;5083915;28;20115;-80
2022/03/26 02:09:34;;;;;;;55.47;37.05;;;6.10;99.90;;;;;;5084876;28;19920;-80
2022/03/26 02:12:00;;;;;;;56.03;38.10;;;6.10;99.90;;;;;;5066294;28;20047;-80
2022/03/26 02:14:25;;;;;;;57.58;37.15;;;6.10;99.90;;;;;;5086851;28;20040;-80
2022/03/26 02:16:52;;;;;;;57.70;37.75;;;6.10;99.90;;;;;;5068400;28;20923;-80
2022/03/26 02:19:20;;;;;;;56.85;36.95;;;6.00;99.90;;;;;;5070348;28;20683;-80
2022/03/26 02:21:49;;;;;;;53.15;35.40;;;6.00;99.90;;;;;;5084471;28;20051;-80
2022/03/26 02:24:15;;;;;;;55.45;39.38;;;6.00;99.90;;;;;;5069188;28;20475;-80
2022/03/26 02:26:41;;;;;;;52.72;37.35;;;6.00;99.90;;;;;;5086334;28;20044;-80
2022/03/26 02:29:09;;;;;;;60.45;40.35;;;6.00;99.90;;;;;;5068347;28;20050;-80
2022/03/26 02:31:36;;;;;;;58.92;40.83;;;5.90;99.90;;;;;;5068552;28;20499;-79
2022/03/26 02:34:03;;;;;;;65.13;42.35;;;5.90;99.90;;;;;;5085101;28;20760;-80
2022/03/26 02:36:29;;;;;;;61.13;41.80;;;5.90;99.90;;;;;;5085070;28;20032;-80
2022/03/26 02:38:55;;;;;;;61.13;41.50;;;5.90;99.90;;;;;;5087072;28;20445;-79
2022/03/26 02:41:20;;;;;;;61.35;41.20;;;6.00;99.90;;;;;;5087856;28;20043;-80
2022/03/26 02:43:46;;;;;;;66.47;42.63;;;5.90;99.90;;;;;;5063537;28;20135;-79
2022/03/26 02:46:11;;;;;;;62.97;42.33;;;5.90;99.90;;;;;;5067220;28;20071;-80
2022/03/26 02:48:39;;;;;;;61.38;44.00;;;5.80;99.90;;;;;;5085456;28;20036;-80
2022/03/26 02:51:05;;;;;;;62.47;42.25;;;5.90;99.90;;;;;;5083856;28;20046;-80
2022/03/26 02:53:31;;;;;;;64.90;42.97;;;5.90;99.90;;;;;;5060656;28;20071;-80
2022/03/26 02:55:57;;;;;;;59.13;41.95;;;5.80;99.90;;;;;;5068684;28;20106;-81
2022/03/26 02:58:23;;;;;;;67.95;43.33;;;5.80;99.90;;;;;;5066291;28;20040;-81
2022/03/26 03:00:49;;;;;;;64.55;42.63;;;5.70;99.90;;;;;;5067776;28;20048;-82
2022/03/26 03:03:15;;;;;;;65.35;43.28;;;5.80;99.90;;;;;;5088957;28;20067;-81
2022/03/26 03:05:41;;;;;;;66.88;44.00;;;5.80;99.90;;;;;;5069783;28;20070;-80
2022/03/26 03:08:06;;;;;;;59.35;39.60;;;5.80;99.90;;;;;;5089403;28;20071;-81
2022/03/26 03:10:32;;;;;;;61.47;42.08;;;5.80;99.90;;;;;;5089853;28;20040;-81
2022/03/26 03:12:59;;;;;;;61.03;42.78;;;5.70;99.90;;;;;;5089921;28;20459;-81
2022/03/26 03:15:24;;;;;;;65.13;43.93;;;5.70;99.90;;;;;;5067658;28;20058;-81
2022/03/26 03:17:51;;;;;;;59.47;42.30;;;5.60;99.90;;;;;;5087634;28;20652;-81
2022/03/26 03:20:16;;;;;;;60.20;40.92;;;5.60;99.90;;;;;;5071166;28;20143;-81
2022/03/26 03:22:43;;;;;;;58.63;40.10;;;5.50;99.90;;;;;;5071962;28;20142;-81
2022/03/26 03:25:10;;;;;;;58.05;39.35;;;5.50;99.90;;;;;;5072718;28;20114;-81
2022/03/26 03:27:37;;;;;;;59.45;39.20;;;5.40;99.90;;;;;;5071147;28;20036;-81
2022/03/26 03:30:04;;;;;;;64.70;41.58;;;5.40;99.90;;;;;;5089760;28;20047;-81
2022/03/26 03:32:30;;;;;;;59.95;41.22;;;5.40;99.90;;;;;;5072351;28;20101;-81
2022/03/26 03:34:56;;;;;;;58.30;40.50;;;5.40;99.90;;;;;;5072077;28;20043;-81
2022/03/26 03:37:23;;;;;;;61.38;39.08;;;5.40;99.90;;;;;;5090042;28;20036;-81
2022/03/26 03:39:48;;;;;;;59.38;40.58;;;5.40;99.90;;;;;;5088665;28;20056;-80
2022/03/26 03:42:14;;;;;;;57.08;38.72;;;5.30;99.90;;;;;;5070857;28;20051;-81
2022/03/26 03:44:39;;;;;;;60.70;39.70;;;5.30;99.90;;;;;;5071762;28;20108;-81
2022/03/26 03:47:05;;;;;;;63.15;42.00;;;5.30;99.90;;;;;;5087787;28;20403;-80
2022/03/26 03:49:34;;;;;;;60.60;40.92;;;5.30;99.90;;;;;;5071355;28;20130;-81
2022/03/26 03:52:00;;;;;;;60.92;40.60;;;5.20;99.90;;;;;;5070925;28;20169;-82
2022/03/26 03:54:27;;;;;;;63.70;42.50;;;5.20;99.90;;;;;;5089353;28;20079;-81
2022/03/26 03:56:53;;;;;;;59.22;40.55;;;5.20;99.90;;;;;;5087857;28;20383;-81
2022/03/26 03:59:18;;;;;;;58.22;40.95;;;5.20;99.90;;;;;;5072003;28;20048;-81
2022/03/26 04:01:44;;;;;;;60.63;39.42;;;5.20;99.90;;;;;;5068679;28;20055;-81
2022/03/26 04:04:10;;;;;;;61.75;41.25;;;5.20;99.90;;;;;;5072546;28;20078;-81
2022/03/26 04:06:35;;;;;;;63.85;43.38;;;5.20;99.90;;;;;;5068369;28;20462;-81
2022/03/26 04:09:01;;;;;;;62.22;40.20;;;5.10;99.90;;;;;;5088857;28;20055;-84
2022/03/26 04:11:27;;;;;;;63.50;42.05;;;5.10;99.90;;;;;;5071996;28;20056;-82
2022/03/26 04:13:53;;;;;;;64.80;40.83;;;5.10;99.90;;;;;;5087426;28;20040;-82
2022/03/26 04:16:23;;;;;;;65.85;44.08;;;5.10;99.90;;;;;;5069913;28;20043;-81
2022/03/26 04:18:48;;;;;;;66.43;43.35;;;5.10;99.90;;;;;;5069237;28;20047;-81
2022/03/26 04:21:15;;;;;;;62.22;42.13;;;5.10;99.90;;;;;;5086598;28;20036;-82
2022/03/26 04:23:41;;;;;;;62.17;39.92;;;5.10;99.90;;;;;;5087766;28;20043;-81
2022/03/26 04:26:08;;;;;;;57.85;41.35;;;5.00;99.90;;;;;;5087793;28;20032;-82
2022/03/26 04:28:35;;;;;;;65.32;43.63;;;5.00;99.90;;;;;;5070296;28;20101;-82
2022/03/26 04:31:00;;;;;;;69.35;45.42;;;5.00;99.90;;;;;;5071355;28;20135;-82
2022/03/26 04:33:26;;;;;;;62.88;42.42;;;5.00;99.90;;;;;;5072234;28;20123;-82
2022/03/26 04:35:52;;;;;;;66.22;45.88;;;5.00;99.90;;;;;;5089840;28;20123;-82
2022/03/26 04:38:17;;;;;;;70.00;46.13;;;5.00;99.90;;;;;;5085594;28;20040;-81
2022/03/26 04:40:43;;;;;;;72.65;43.60;;;5.00;99.90;;;;;;5070828;28;20047;-82
2022/03/26 04:43:08;;;;;;;73.65;49.22;;;4.90;99.90;;;;;;5072039;28;20032;-82
2022/03/26 04:45:34;;;;;;;71.80;47.53;;;4.90;99.90;;;;;;5089973;28;20051;-81
2022/03/26 04:48:00;;;;;;;74.63;47.50;;;4.90;99.90;;;;;;5070981;28;20066;-81
2022/03/26 04:50:26;;;;;;;73.80;47.72;;;4.90;99.90;;;;;;5089374;28;20139;-81
2022/03/26 04:52:52;;;;;;;76.03;48.80;;;4.90;99.90;;;;;;5089007;28;20073;-82
2022/03/26 04:55:18;;;;;;;72.43;47.08;;;4.90;99.90;;;;;;5072156;28;20502;-81
2022/03/26 04:57:48;;;;;;;63.58;40.33;;;4.80;99.90;;;;;;5070487;28;20432;-82
2022/03/26 05:00:15;;;;;;;65.88;43.97;;;4.80;99.90;;;;;;5086232;28;20044;-82
2022/03/26 05:02:41;;;;;;;67.10;44.38;;;4.80;99.90;;;;;;5071839;28;20089;-82
2022/03/26 05:05:09;;;;;;;69.35;41.97;;;4.80;99.90;;;;;;5089142;28;20044;-81
2022/03/26 05:07:47;;;;;;;;;;;4.70;99.90;;;;;;5071472;28;20178;-81
2022/03/26 05:10:23;;;;;;;73.30;44.13;;;4.70;99.90;;;;;;5064998;28;19973;-82
2022/03/26 05:12:51;;;;;;;77.27;48.37;;;4.70;99.90;;;;;;5070932;28;20150;-81
2022/03/26 05:15:18;;;;;;;78.65;47.08;;;4.70;99.90;;;;;;5090250;28;20255;-81
2022/03/26 05:17:44;;;;;;;81.57;51.10;;;4.70;99.90;;;;;;5088615;28;20036;-82
2022/03/26 05:20:12;;;;;;;89.63;54.75;;;4.70;99.90;;;;;;5088930;28;20048;-81
2022/03/26 05:22:47;;;;;;;82.43;50.90;;;4.70;99.90;;;;;;5071916;28;20059;-81
2022/03/26 05:25:14;;;;;;;85.78;54.92;;;4.70;99.90;;;;;;5071088;28;20047;-81
2022/03/26 05:27:47;;;;;;;87.60;55.57;;;4.80;99.90;;;;;;5088040;28;20032;-81
2022/03/26 05:30:14;;;;;;;96.20;53.15;;;4.80;99.90;;;;;;5091912;28;20052;-81
2022/03/26 05:32:40;;;;;;;92.72;59.50;;;4.80;99.90;;;;;;5071231;28;20546;-81
2022/03/26 05:35:11;;;;;;;89.97;57.50;;;4.80;99.90;;;;;;5089203;28;20036;-82
2022/03/26 05:37:48;;;;;;;86.35;56.67;;;4.90;99.90;;;;;;5070225;28;20679;-81
2022/03/26 05:40:16;;;;;;;83.18;50.97;;;4.90;99.90;;;;;;5089391;28;20051;-81
2022/03/26 05:42:42;;;;;;;79.82;47.67;;;4.80;99.90;;;;;;5071433;28;20119;-81
2022/03/26 05:45:09;;;;;;;87.25;52.95;;;4.80;99.90;;;;;;5089595;28;20048;-82
2022/03/26 05:47:36;;;;;;;83.47;54.30;;;4.70;99.90;;;;;;5087304;28;20045;-81
2022/03/26 05:50:06;;;;;;;90.27;53.27;;;4.70;99.90;;;;;;5089262;28;20123;-81
2022/03/26 05:52:31;;;;;;;93.18;57.83;;;4.70;99.90;;;;;;5071423;28;20294;-80
2022/03/26 05:54:57;;;;;;;97.47;58.20;;;4.70;99.90;;;;;;5069526;28;20116;-82
2022/03/26 05:57:22;;;;;;;91.97;56.05;;;4.70;99.90;;;;;;5070947;28;20130;-82
2022/03/26 05:59:49;;;;;;;93.07;60.00;;;4.80;99.90;;;;;;5071031;28;20051;-82
2022/03/26 06:02:15;;;;;;;92.10;58.08;;;4.80;99.90;;;;;;5089185;28;20033;-82
2022/03/26 06:04:42;;;;;;;88.32;51.85;;;4.90;99.90;;;;;;5096507;28;20115;-81
2022/03/26 06:07:07;;;;;;;96.40;60.33;;;4.90;99.90;;;;;;5102812;28;20087;-81
2022/03/26 06:09:34;;;;;;;93.05;58.40;;;5.00;99.90;;;;;;5086061;28;20044;-82
2022/03/26 06:12:00;;;;;;;92.70;58.33;;;5.00;99.90;;;;;;5080944;28;20048;-81
2022/03/26 06:14:26;;;;;;;92.88;57.70;;;5.00;99.90;;;;;;5091150;28;20364;-81
2022/03/26 06:16:52;;;;;;;93.60;54.70;;;5.10;99.90;;;;;;5071808;28;20131;-81
2022/03/26 06:19:17;;;;;;;99.00;59.97;;;5.20;99.90;;;;;;5072079;28;20058;-82
2022/03/26 06:21:43;;;;;;;100.10;63.10;;;5.20;99.90;;;;;;5088879;28;20040;-81
2022/03/26 06:24:09;;;;;;;107.20;66.60;;;5.30;99.90;;;;;;5087439;28;20490;-82
2022/03/26 06:26:37;;;;;;;112.35;67.57;;;5.40;99.90;;;;;;5070850;28;20394;-81
2022/03/26 06:29:04;;;;;;;113.75;69.50;;;5.50;99.90;;;;;;5069694;28;20386;-81
2022/03/26 06:31:29;;;;;;;116.87;69.97;;;5.50;99.90;;;;;;5089055;28;20122;-82
2022/03/26 06:33:55;;;;;;;114.88;70.93;;;5.60;99.90;;;;;;5070865;28;20139;-82
2022/03/26 06:36:21;;;;;;;112.65;69.05;;;5.70;99.90;;;;;;5068458;28;20032;-81
2022/03/26 06:38:48;;;;;;;114.47;72.50;;;5.80;99.90;;;;;;5073565;28;20453;-82
2022/03/26 06:41:15;;;;;;;114.82;70.03;;;5.90;99.90;;;;;;5074387;28;20047;-82
2022/03/26 06:43:43;;;;;;;116.85;72.93;;;6.00;99.90;;;;;;5074094;28;20056;-82
2022/03/26 06:46:08;;;;;;;124.05;75.32;;;6.10;99.90;;;;;;5075229;28;20402;-82
2022/03/26 06:48:35;;;;;;;122.38;74.43;;;6.20;99.90;;;;;;5074620;28;20036;-82
2022/03/26 06:51:01;;;;;;;124.55;74.68;;;6.20;99.90;;;;;;5072543;28;20098;-81
2022/03/26 06:53:31;;;;;;;123.68;75.88;;;6.30;99.90;;;;;;5092771;28;20091;-81
2022/03/26 06:55:59;;;;;;;132.57;79.40;;;6.40;99.90;;;;;;5074437;28;20047;-81
2022/03/26 06:58:25;;;;;;;130.25;78.47;;;6.50;99.90;;;;;;5092036;28;20075;-82
2022/03/26 07:00:51;;;;;;;124.50;77.70;;;6.50;99.90;;;;;;5090759;28;20074;-82
2022/03/26 07:03:17;;;;;;;123.32;75.22;;;6.70;99.90;;;;;;5074598;28;20146;-82
2022/03/26 07:05:43;;;;;;;118.38;74.18;;;6.70;99.90;;;;;;5091466;28;20051;-82
2022/03/26 07:08:09;;;;;;;120.10;72.93;;;6.80;99.90;;;;;;5090640;28;20371;-82
2022/03/26 07:10:35;;;;;;;122.57;74.95;;;6.80;99.90;;;;;;5092576;28;20044;-82
2022/03/26 07:13:01;;;;;;;117.70;74.43;;;7.00;99.90;;;;;;5072982;28;20040;-82
2022/03/26 07:15:28;;;;;;;118.30;75.13;;;7.10;99.90;;;;;;5092603;28;20094;-82
2022/03/26 07:17:54;;;;;;;120.03;74.05;;;7.20;99.90;;;;;;5091012;28;20052;-81
2022/03/26 07:20:20;;;;;;;121.22;73.07;;;7.40;99.90;;;;;;5076570;28;20159;-82
2022/03/26 07:22:45;;;;;;;121.60;74.20;;;7.50;99.90;;;;;;5089610;28;20040;-82
2022/03/26 07:25:11;;;;;;;124.05;75.72;;;7.60;99.90;;;;;;5090743;28;20108;-82
2022/03/26 07:27:37;;;;;;;132.73;77.97;;;7.70;99.90;;;;;;5088333;28;20067;-80
2022/03/26 07:30:05;;;;;;;123.93;77.15;;;7.80;99.90;;;;;;5089189;28;20671;-81
2022/03/26 07:32:30;;;;;;;120.60;76.00;;;7.90;99.90;;;;;;5089428;28;20485;-80
2022/03/26 07:34:56;;;;;;;123.47;77.43;;;8.00;99.90;;;;;;5058439;28;20578;-77
2022/03/26 07:37:22;;;;;;;127.50;77.45;;;8.10;99.90;;;;;;5079219;28;20040;-78
2022/03/26 07:39:48;;;;;;;118.82;73.97;;;8.20;99.90;;;;;;5069662;28;20071;-79
2022/03/26 07:42:14;;;;;;;123.95;73.40;;;8.30;99.90;;;;;;5071434;28;20047;-79
2022/03/26 07:44:40;;;;;;;114.70;70.32;;;8.40;99.90;;;;;;5087632;28;20077;-78
2022/03/26 07:47:05;;;;;;;120.75;72.60;;;8.60;99.90;;;;;;5059958;28;20051;-80
2022/03/26 07:49:32;;;;;;;114.35;71.00;;;8.70;99.90;;;;;;5070073;28;20075;-80
2022/03/26 07:51:57;;;;;;;115.07;67.65;;;8.80;99.90;;;;;;5088560;28;20486;-81
2022/03/26 07:54:23;;;;;;;99.22;60.63;;;8.90;99.90;;;;;;5087133;28;20051;-80
2022/03/26 07:56:49;;;;;;;93.43;57.35;;;9.10;99.90;;;;;;5066877;28;20037;-80
2022/03/26 07:59:15;;;;;;;90.82;55.85;;;9.20;99.90;;;;;;5070681;28;20464;-81
2022/03/26 08:01:43;;;;;;;87.50;55.28;;;9.40;99.90;;;;;;5089861;28;20040;-81
2022/03/26 08:04:09;;;;;;;81.50;49.60;;;9.60;99.90;;;;;;5069774;28;20055;-80
2022/03/26 08:06:34;;;;;;;77.45;45.70;;;9.70;99.90;;;;;;5088507;28;20040;-80
2022/03/26 08:09:00;;;;;;;79.75;47.90;;;9.80;99.90;;;;;;5068752;28;20051;-80
2022/03/26 08:11:25;;;;;;;72.50;44.80;;;10.00;99.90;;;;;;5072045;28;20112;-80
2022/03/26 08:13:51;;;;;;;75.57;45.85;;;10.10;99.90;;;;;;5071452;28;20498;-80
2022/03/26 08:16:17;;;;;;;75.45;43.83;;;10.30;99.90;;;;;;5088586;28;20048;-80
2022/03/26 08:18:44;;;;;;;65.65;39.15;;;10.40;99.90;;;;;;5066207;28;20098;-80
2022/03/26 08:21:10;;;;;;;63.88;40.83;;;10.50;98.90;;;;;;5069339;28;20037;-80
2022/03/26 08:23:36;;;;;;;66.95;38.88;;;10.60;98.00;;;;;;5067547;28;20369;-81
2022/03/26 08:28:47;;;;;;;63.38;39.17;;;10.80;94.10;;;;;;5067327;28;20049;-81
2022/03/26 08:31:13;;;;;;;64.95;38.63;;;10.90;93.60;;;;;;5065160;28;20035;-80
2022/03/26 08:33:40;;;;;;;66.07;40.25;;;11.00;92.80;;;;;;5063474;28;20742;-80
2022/03/26 08:36:06;;;;;;;65.72;40.63;;;11.10;91.30;;;;;;5065139;28;20041;-81
2022/03/26 08:38:32;;;;;;;67.57;41.08;;;11.20;90.20;;;;;;5069392;28;20070;-81
2022/03/26 08:40:58;;;;;;;69.10;42.90;;;11.40;88.10;;;;;;5066318;28;20127;-80
2022/03/26 08:43:24;;;;;;;68.45;42.60;;;11.40;86.40;;;;;;5066374;28;20036;-80
2022/03/26 08:45:49;;;;;;;73.80;44.22;;;11.50;85.40;;;;;;5065467;28;20051;-81
2022/03/26 08:48:15;;;;;;;73.03;45.42;;;11.60;86.70;;;;;;5066047;28;20040;-80
2022/03/26 08:50:44;;;;;;;73.50;42.83;;;11.70;89.40;;;;;;5067657;28;20098;-86
2022/03/26 08:53:10;;;;;;;73.32;41.28;;;11.80;85.50;;;;;;5066827;28;20119;-81
2022/03/26 08:55:36;;;;;;;68.53;41.63;;;11.90;83.00;;;;;;5071513;28;20051;-79
2022/03/26 08:58:02;;;;;;;62.45;37.03;;;12.00;82.30;;;;;;5069289;28;20055;-79
2022/03/26 09:00:28;;;;;;;69.05;40.72;;;12.00;78.80;;;;;;5074834;28;20076;-84
2022/03/26 09:02:55;;;;;;;60.38;37.15;;;12.10;80.40;;;;;;5069882;28;20082;-81
2022/03/26 09:05:20;;;;;;;62.63;36.92;;;12.20;82.00;;;;;;5068891;28;20055;-83
2022/03/26 09:07:46;;;;;;;58.08;34.80;;;12.30;82.70;;;;;;5064461;28;20037;-86
2022/03/26 09:10:12;;;;;;;67.28;37.55;;;12.40;78.70;;;;;;5070556;28;20041;-87
2022/03/26 09:12:38;;;;;;;62.00;36.35;;;12.40;77.60;;;;;;5068908;28;20123;-80
2022/03/26 09:15:06;;;;;;;64.20;38.65;;;12.50;75.10;;;;;;5067722;28;20536;-86
2022/03/26 09:17:32;;;;;;;62.92;37.80;;;12.60;76.70;;;;;;5070105;28;20234;-83
2022/03/26 09:19:58;;;;;;;60.30;35.72;;;12.70;78.20;;;;;;5077346;28;20110;-84
2022/03/26 09:22:24;;;;;;;58.90;34.78;;;12.70;75.40;;;;;;5085966;28;20075;-83
2022/03/26 09:24:50;;;;;;;62.00;35.70;;;12.80;73.00;;;;;;5053637;28;20047;-83
2022/03/26 09:27:16;;;;;;;58.42;34.65;;;12.90;71.70;;;;;;5069962;28;20127;-85
2022/03/26 09:29:44;;;;;;;56.28;33.00;;;13.00;70.90;;;;;;5069180;28;20130;-84
2022/03/26 09:32:11;;;;;;;50.80;31.02;;;13.10;71.70;;;;;;5084191;28;20131;-83
2022/03/26 09:34:36;;;;;;;56.88;33.55;;;13.20;70.90;;;;;;5070374;28;20129;-85
2022/03/26 09:37:03;;;;;;;43.63;26.92;;;13.20;71.20;;;;;;5085757;28;20519;-86
2022/03/26 09:39:28;;;;;;;38.53;22.10;;;13.30;72.80;;;;;;5074148;28;20452;-85
2022/03/26 09:41:55;;;;;;;37.08;23.10;;;13.40;70.90;;;;;;5072308;28;20403;-85
2022/03/26 09:44:22;;;;;;;41.63;23.27;;;13.50;72.40;;;;;;5067572;28;20048;-84
2022/03/26 09:46:48;;;;;;;;;;;13.50;72.50;;;;;;5088638;28;20198;-85
2022/03/26 09:49:14;;;;;;;39.95;22.30;;;13.60;77.00;;;;;;5087998;28;20033;-83
2022/03/26 09:51:41;;;;;;;34.30;22.40;;;13.70;76.90;;;;;;5051413;28;20066;-82
2022/03/26 09:54:12;;;;;;;34.58;24.00;;;13.80;76.00;;;;;;5069106;28;20047;-82
2022/03/26 09:56:38;;;;;;;36.70;24.75;;;13.90;75.50;;;;;;5075193;28;20648;-85
2022/03/26 09:59:04;;;;;;;38.92;24.15;;;13.90;77.50;;;;;;5052933;28;20510;-85
2022/03/26 10:01:30;;;;;;;35.30;23.25;;;14.00;76.00;;;;;;5088200;28;20118;-84
2022/03/26 10:04:16;;;;;;;29.92;22.02;;;14.00;79.20;;;;;;5089371;28;20436;-85
2022/03/26 10:07:08;;;;;;;36.17;21.90;;;14.10;82.40;;;;;;5071174;28;20040;-84
2022/03/26 10:09:38;;;;;;;35.03;22.90;;;14.10;82.50;;;;;;5066282;28;20483;-84
2022/03/26 10:12:10;;;;;;;30.45;21.92;;;14.10;84.40;;;;;;5070745;28;20130;-83
2022/03/26 10:14:43;;;;;;;31.85;21.95;;;14.20;84.10;;;;;;5093388;28;20260;-84
2022/03/26 10:17:11;;;;;;;30.88;21.60;;;14.30;89.90;;;;;;5089931;28;20089;-86
2022/03/26 10:19:41;;;;;;;29.50;21.45;;;14.30;88.60;;;;;;5071629;28;20414;-84
2022/03/26 10:22:20;;;;;;;26.33;19.55;;;14.40;89.20;;;;;;5091414;28;20097;-82
2022/03/26 10:24:45;;;;;;;30.58;21.52;;;14.50;91.10;;;;;;5080040;28;20036;-78
2022/03/26 10:27:11;;;;;;;23.90;18.80;;;14.50;91.00;;;;;;5103389;28;20043;-81
2022/03/26 10:29:54;;;;;;;22.00;16.88;;;14.60;91.20;;;;;;5091114;28;20051;-81
2022/03/26 10:32:43;;;;;;;21.50;15.73;;;14.60;90.20;;;;;;5081629;28;20525;-81
2022/03/26 10:35:20;;;;;;;19.17;14.68;;;14.70;88.60;;;;;;5077305;28;20075;-81
2022/03/26 10:37:56;;;;;;;24.17;16.67;;;14.70;87.10;;;;;;5093594;28;20046;-82
2022/03/26 10:40:32;;;;;;;17.85;14.52;;;14.70;90.20;;;;;;5073900;28;20071;-81
2022/03/26 10:43:04;;;;;;;17.93;14.43;;;14.80;87.40;;;;;;5089454;28;20071;-81
2022/03/26 10:45:33;;;;;;;21.35;14.88;;;14.80;84.80;;;;;;5074937;28;20479;-81
2022/03/26 10:48:00;;;;;;;20.92;16.38;;;14.80;86.00;;;;;;5074303;28;20555;-81
2022/03/26 10:50:30;;;;;;;23.40;17.05;;;14.90;86.20;;;;;;5091428;28;20541;-76
2022/03/26 10:52:56;;;;;;;23.55;17.58;;;14.90;88.90;;;;;;5091246;28;20417;-86
2022/03/26 10:55:23;;;;;;;19.67;15.48;;;15.00;87.80;;;;;;5074002;28;20105;-82
2022/03/26 10:57:48;;;;;;;18.50;15.48;;;15.10;86.30;;;;;;5073656;28;20047;-84
2022/03/26 11:00:17;;;;;;;20.77;16.85;;;15.10;87.40;;;;;;5074854;28;20089;-84
2022/03/26 11:02:43;;;;;;;22.27;16.40;;;15.10;88.80;;;;;;5073768;28;20075;-84
2022/03/26 11:05:10;;;;;;;22.73;16.40;;;15.30;85.50;;;;;;5092028;28;20438;-81
2022/03/26 11:07:37;;;;;;;24.33;17.70;;;15.20;85.40;;;;;;5090851;28;20052;-82
2022/03/26 11:10:10;;;;;;;24.92;19.08;;;15.30;84.10;;;;;;5090517;28;20130;-80
2022/03/26 11:12:48;;;;;;;23.42;18.48;;;15.30;84.30;;;;;;5071828;28;20402;-83
2022/03/26 11:15:22;;;;;;;25.20;19.25;;;15.40;85.10;;;;;;5073263;28;20538;-84
2022/03/26 11:17:58;;;;;;;21.48;16.00;;;15.40;83.10;;;;;;5072477;28;20550;-82
2022/03/26 11:20:30;;;;;;;20.30;15.82;;;15.40;80.70;;;;;;5073609;28;20048;-84
2022/03/26 11:23:20;;;;;;;19.92;15.40;;;15.40;81.20;;;;;;5069569;28;20048;-85
2022/03/26 11:25:55;;;;;;;21.45;16.98;;;15.60;78.10;;;;;;5070427;28;20052;-80
2022/03/26 11:28:35;;;;;;;25.65;17.77;;;15.60;80.10;;;;;;5091510;28;20489;-75
2022/03/26 11:31:21;;;;;;;23.25;17.95;;;15.60;79.70;;;;;;5089928;28;20087;-79
2022/03/26 11:33:49;;;;;;;26.13;19.90;;;15.60;76.20;;;;;;5071294;28;20044;-81
2022/03/26 11:36:19;;;;;;;26.05;18.65;;;15.60;76.90;;;;;;5073257;28;20059;-82
2022/03/26 11:39:17;;;;;;;24.60;18.92;;;15.60;76.70;;;;;;5086947;28;20041;-82
2022/03/26 11:41:47;;;;;;;27.92;20.20;;;15.70;78.90;;;;;;5085403;28;20055;-77
2022/03/26 11:44:15;;;;;;;24.35;18.35;;;15.70;78.40;;;;;;5068203;28;20037;-80
2022/03/26 11:52:33;;;;;;;21.85;17.25;;;15.90;75.80;;;;;;4997348;28;20042;-77
2022/03/26 11:55:11;;;;;;;23.42;17.70;;;15.90;77.60;;;;;;5082487;28;20044;-77
2022/03/26 11:57:36;;;;;;;24.25;18.65;;;15.90;75.30;;;;;;5089833;28;20095;-77
2022/03/26 12:00:11;;;;;;;23.20;18.00;;;16.00;74.50;;;;;;5089045;28;20504;-77
2022/03/26 12:02:46;;;;;;;21.70;17.38;;;16.00;73.60;;;;;;5073260;28;20044;-78
2022/03/26 12:08:14;;;;;;;22.52;17.83;;;16.20;72.90;;;;;;5089774;28;20395;-77
2022/03/26 12:10:40;;;;;;;23.08;18.45;;;16.20;71.80;;;;;;5073339;28;20445;-77
2022/03/26 12:13:07;;;;;;;23.58;19.00;;;16.20;73.20;;;;;;5072612;28;20048;-77
2022/03/26 12:15:34;;;;;;;19.67;15.50;;;16.30;73.20;;;;;;5089931;28;20051;-77
2022/03/26 12:18:14;;;;;;;21.13;16.55;;;16.30;73.10;;;;;;5090007;28;20052;-77
2022/03/26 12:20:48;;;;;;;20.83;15.98;;;16.30;75.00;;;;;;5089833;28;20602;-77
2022/03/26 12:23:28;;;;;;;18.90;14.90;;;16.40;72.60;;;;;;5072887;28;20044;-77
2022/03/26 12:26:00;;;;;;;17.10;14.70;;;16.50;72.50;;;;;;5071161;28;20097;-77
2022/03/26 12:28:26;;;;;;;16.80;14.32;;;16.40;70.70;;;;;;5068225;28;20043;-77
2022/03/26 12:31:04;;;;;;;17.23;14.48;;;16.50;71.70;;;;;;5089733;28;20052;-77
2022/03/26 12:33:43;;;;;;;19.65;13.95;;;16.50;70.40;;;;;;5091120;28;20372;-77
2022/03/26 12:36:09;;;;;;;19.08;14.57;;;16.40;70.20;;;;;;5051405;28;20054;-77
2022/03/26 12:38:35;;;;;;;19.25;13.20;;;16.50;71.20;;;;;;5070946;28;20067;-77
2022/03/26 12:41:03;;;;;;;16.27;12.52;;;16.50;70.50;;;;;;5085698;28;20240;-77
2022/03/26 12:43:29;;;;;;;16.10;12.02;;;16.60;68.60;;;;;;5071886;28;20040;-77
2022/03/26 12:45:57;;;;;;;14.38;11.68;;;16.60;70.40;;;;;;5087020;28;20042;-77